createdAt,value
2018-03-24T00:00:10.629Z,82.86
2018-03-24T00:02:40.096Z,83.21
2018-03-24T00:05:09.938Z,83.41
2018-03-24T00:07:39.421Z,83.53
2018-03-24T00:10:09.424Z,83.52
2018-03-24T00:12:39.289Z,83.41
2018-03-24T00:15:08.774Z,83.29
2018-03-24T00:17:38.234Z,83.29
2018-03-24T00:20:07.714Z,83.47
2018-03-24T00:22:37.160Z,83.53
2018-03-24T00:25:07.220Z,83.61
2018-03-24T00:27:36.680Z,83.71
2018-03-24T00:30:06.528Z,83.72
2018-03-24T00:32:36.008Z,83.71
2018-03-24T00:35:05.862Z,84.03
2018-03-24T00:37:35.317Z,84.17
2018-03-24T00:40:04.712Z,84.42
2018-03-24T00:42:34.562Z,84.52
2018-03-24T00:45:03.787Z,84.57
2018-03-24T00:47:33.272Z,84.82
2018-03-24T00:50:02.735Z,84.89
2018-03-24T00:52:32.598Z,84.84
2018-03-24T00:55:02.256Z,84.72
2018-03-24T00:57:31.526Z,84.79
2018-03-24T01:00:01.009Z,84.94
2018-03-24T01:02:30.472Z,85.17
2018-03-24T01:05:00.318Z,85.29
2018-03-24T01:07:29.438Z,85.16
2018-03-24T01:09:58.900Z,85.19
2018-03-24T01:12:28.766Z,85.53
2018-03-24T01:14:58.236Z,85.65
2018-03-24T01:17:27.680Z,85.75
2018-03-24T01:19:57.126Z,85.71
2018-03-24T01:22:26.587Z,85.87
2018-03-24T01:24:56.043Z,85.87
2018-03-24T01:27:25.486Z,85.78
2018-03-24T01:29:54.960Z,85.84
2018-03-24T01:32:24.402Z,86.13
2018-03-24T01:34:53.862Z,86.17
2018-03-24T01:37:23.320Z,86.05
2018-03-24T01:39:52.777Z,85.92
2018-03-24T01:42:22.224Z,85.88
2018-03-24T01:44:51.673Z,85.87
2018-03-24T01:47:21.518Z,85.78
2018-03-24T01:49:51.014Z,85.75
2018-03-24T01:52:20.469Z,85.89
2018-03-24T01:54:50.122Z,85.95
2018-03-24T01:57:19.568Z,86.35
2018-03-24T01:59:49.024Z,86.53
2018-03-24T02:02:18.485Z,86.60
2018-03-24T02:04:48.158Z,86.64
2018-03-24T02:07:17.829Z,86.58
2018-03-24T02:09:47.675Z,86.75
2018-03-24T02:12:17.124Z,86.70
2018-03-24T02:14:46.574Z,86.75
2018-03-24T02:17:16.017Z,86.89
2018-03-24T02:19:45.294Z,86.96
2018-03-24T02:22:14.411Z,87.00
2018-03-24T02:27:49.060Z,86.95
2018-03-24T02:30:18.337Z,86.95
2018-03-24T02:32:47.623Z,86.95
2018-03-24T02:35:17.079Z,87.10
2018-03-24T02:37:46.582Z,86.98
2018-03-24T02:40:16.233Z,87.09
2018-03-24T02:42:45.685Z,87.28
2018-03-24T02:45:15.142Z,87.20
2018-03-24T02:47:44.608Z,87.19
2018-03-24T02:50:14.538Z,86.79
2018-03-24T02:52:44.407Z,86.70
2018-03-24T02:55:14.073Z,86.13
2018-03-24T02:57:43.927Z,85.64
2018-03-24T03:00:13.588Z,84.30
2018-03-24T03:02:43.445Z,84.42
2018-03-24T03:05:12.904Z,84.74
2018-03-24T03:07:42.775Z,84.53
2018-03-24T03:10:12.426Z,83.94
2018-03-24T03:12:42.280Z,83.47
2018-03-24T03:15:11.736Z,81.87
2018-03-24T03:17:41.198Z,82.98
2018-03-24T03:20:10.485Z,82.48
2018-03-24T03:22:39.944Z,83.78
2018-03-24T03:25:09.803Z,84.23
2018-03-24T03:27:39.264Z,84.40
2018-03-24T03:30:13.958Z,84.67
2018-03-24T03:32:43.234Z,84.78
2018-03-24T03:35:12.688Z,84.40
2018-03-24T03:37:42.154Z,84.33
2018-03-24T03:40:11.616Z,84.18
2018-03-24T03:42:41.475Z,83.36
2018-03-24T03:45:10.938Z,83.42
2018-03-24T03:47:40.997Z,83.83
2018-03-24T03:50:10.758Z,84.00
2018-03-24T03:52:40.620Z,84.22
2018-03-24T03:55:10.086Z,84.05
2018-03-24T03:57:39.940Z,84.24
2018-03-24T04:00:09.704Z,84.41
2018-03-24T04:02:39.572Z,84.39
2018-03-24T04:05:09.076Z,84.49
2018-03-24T04:07:38.593Z,84.49
2018-03-24T04:10:08.582Z,83.87
2018-03-24T04:12:38.628Z,84.04
2018-03-24T04:15:08.096Z,83.43
2018-03-24T04:17:37.553Z,83.73
2018-03-24T04:20:06.684Z,84.05
2018-03-24T04:22:36.530Z,84.46
2018-03-24T04:25:05.792Z,84.61
2018-03-24T04:27:35.671Z,84.70
2018-03-24T04:30:04.232Z,84.85
2018-03-24T04:32:33.695Z,84.81
2018-03-24T04:35:03.543Z,84.83
2018-03-24T04:37:32.994Z,85.17
2018-03-24T04:40:02.458Z,85.27
2018-03-24T04:42:31.916Z,85.43
2018-03-24T04:45:01.796Z,85.55
2018-03-24T04:47:31.255Z,85.39
2018-03-24T04:50:00.718Z,85.21
2018-03-24T04:52:30.174Z,85.14
2018-03-24T04:54:59.653Z,85.22
2018-03-24T04:57:29.512Z,85.23
2018-03-24T04:59:58.971Z,85.18
2018-03-24T05:02:28.830Z,85.04
2018-03-24T05:04:58.283Z,85.15
2018-03-24T05:07:28.140Z,85.38
2018-03-24T05:09:57.586Z,85.47
2018-03-24T05:12:27.041Z,85.63
2018-03-24T05:14:56.518Z,85.44
2018-03-24T05:17:26.375Z,85.16
2018-03-24T05:19:55.836Z,84.87
2018-03-24T05:22:25.687Z,84.92
2018-03-24T05:24:55.358Z,84.91
2018-03-24T05:27:25.430Z,85.01
2018-03-24T05:29:54.890Z,83.85
2018-03-24T05:32:24.343Z,83.54
2018-03-24T05:34:53.786Z,83.96
2018-03-24T05:37:23.639Z,84.24
2018-03-24T05:39:53.095Z,84.21
2018-03-24T05:42:22.967Z,84.50
2018-03-24T05:44:52.419Z,84.61
2018-03-24T05:47:22.282Z,84.67
2018-03-24T05:49:51.761Z,84.61
2018-03-24T05:52:21.225Z,84.71
2018-03-24T05:54:50.689Z,84.74
2018-03-24T05:57:20.159Z,84.58
2018-03-24T05:59:50.199Z,83.95
2018-03-24T06:02:19.645Z,82.72
2018-03-24T06:04:49.119Z,82.17
2018-03-24T06:07:18.576Z,79.84
2018-03-24T06:09:48.496Z,79.97
2018-03-24T06:12:17.950Z,80.46
2018-03-24T06:14:47.408Z,81.41
2018-03-24T06:17:17.248Z,81.91
2018-03-24T06:19:46.710Z,81.93
2018-03-24T06:22:16.164Z,79.93
2018-03-24T06:24:45.613Z,80.36
2018-03-24T06:27:15.092Z,80.15
2018-03-24T06:29:44.353Z,79.87
2018-03-24T06:32:13.993Z,79.50
2018-03-24T06:34:43.255Z,79.55
2018-03-24T06:37:19.393Z,77.76
2018-03-24T06:39:48.869Z,78.33
2018-03-24T06:42:18.323Z,77.88
2018-03-24T06:44:47.842Z,77.14
2018-03-24T06:47:17.911Z,76.37
2018-03-24T06:49:47.368Z,76.19
2018-03-24T06:52:16.821Z,76.44
2018-03-24T06:54:46.266Z,75.90
2018-03-24T06:57:15.715Z,75.86
2018-03-24T06:59:45.182Z,75.43
2018-03-24T07:02:14.668Z,74.67
2018-03-24T07:04:44.503Z,74.18
2018-03-24T07:07:13.978Z,69.83
2018-03-24T07:09:43.420Z,65.77
2018-03-24T07:12:12.861Z,61.23
2018-03-24T07:14:42.305Z,55.79
2018-03-24T07:17:12.155Z,50.49
2018-03-24T07:19:41.793Z,45.80
2018-03-24T07:22:11.243Z,40.93
2018-03-24T07:24:40.692Z,37.83
2018-03-24T07:27:10.156Z,36.31
2018-03-24T07:29:39.612Z,35.51
2018-03-24T07:32:09.061Z,34.47
2018-03-24T07:34:39.087Z,33.33
2018-03-24T07:37:08.544Z,33.40
2018-03-24T07:39:38.018Z,33.08
2018-03-24T07:42:07.508Z,31.68
2018-03-24T07:44:37.161Z,32.39
2018-03-24T07:47:06.275Z,32.44
2018-03-24T07:49:36.153Z,32.41
2018-03-24T07:52:05.608Z,33.93
2018-03-24T07:54:35.459Z,30.74
2018-03-24T07:57:04.920Z,29.89
2018-03-24T07:59:34.596Z,30.80
2018-03-24T08:02:04.052Z,31.17
2018-03-24T08:04:33.506Z,30.51
2018-03-24T08:07:02.965Z,30.51
2018-03-24T08:09:32.413Z,29.33
2018-03-24T08:12:01.881Z,29.07
2018-03-24T08:14:31.346Z,29.18
2018-03-24T08:17:00.814Z,30.50
2018-03-24T08:19:30.445Z,30.65
2018-03-24T08:21:59.915Z,29.73
2018-03-24T08:24:29.370Z,30.06
2018-03-24T08:26:59.235Z,31.60
2018-03-24T08:29:28.693Z,34.33
2018-03-24T08:31:58.545Z,35.40
2018-03-24T08:34:27.997Z,38.47
2018-03-24T08:36:57.461Z,41.71
2018-03-24T08:39:26.915Z,43.71
2018-03-24T08:41:56.353Z,47.35
2018-03-24T08:44:25.799Z,48.01
2018-03-24T08:46:55.242Z,49.08
2018-03-24T08:49:24.697Z,51.78
2018-03-24T08:51:54.138Z,51.37
2018-03-24T08:54:24.003Z,52.20
2018-03-24T08:56:53.441Z,54.89
2018-03-24T08:59:22.879Z,56.16
2018-03-24T09:01:52.332Z,58.12
2018-03-24T09:04:21.767Z,56.51
2018-03-24T09:06:51.641Z,55.04
2018-03-24T09:09:21.083Z,56.32
2018-03-24T09:11:50.520Z,56.52
2018-03-24T09:14:19.965Z,54.04
2018-03-24T09:16:49.428Z,53.92
2018-03-24T09:19:18.880Z,54.59
2018-03-24T09:21:48.323Z,53.31
2018-03-24T09:24:18.178Z,54.67
2018-03-24T09:26:47.632Z,51.36
2018-03-24T09:29:17.481Z,52.02
2018-03-24T09:31:46.924Z,53.98
2018-03-24T09:34:16.359Z,53.41
2018-03-24T09:36:46.203Z,52.64
2018-03-24T09:39:15.655Z,51.12
2018-03-24T09:41:45.274Z,50.71
2018-03-24T09:44:15.147Z,50.45
2018-03-24T09:46:44.603Z,51.42
2018-03-24T09:49:14.443Z,51.06
2018-03-24T09:51:44.566Z,50.69
2018-03-24T09:54:14.031Z,52.08
2018-03-24T09:56:43.891Z,49.71
2018-03-24T09:59:13.322Z,47.42
2018-03-24T10:01:42.757Z,46.67
2018-03-24T10:04:12.602Z,45.07
2018-03-24T10:06:42.049Z,44.70
2018-03-24T10:09:11.502Z,45.24
2018-03-24T10:11:40.942Z,46.18
2018-03-24T10:14:10.388Z,44.43
2018-03-24T10:16:40.230Z,44.26
2018-03-24T10:19:09.691Z,45.17
2018-03-24T10:24:50.234Z,43.89
2018-03-24T10:27:19.690Z,43.00
2018-03-24T10:29:49.532Z,45.36
2018-03-24T10:32:18.970Z,44.13
2018-03-24T10:34:53.704Z,43.39
2018-03-24T10:37:23.164Z,42.30
2018-03-24T10:39:52.620Z,42.96
2018-03-24T10:42:22.136Z,40.99
2018-03-24T10:44:51.602Z,41.62
2018-03-24T10:47:21.046Z,40.97
2018-03-24T10:49:50.298Z,40.91
2018-03-24T10:52:19.766Z,41.01
2018-03-24T10:54:49.342Z,40.30
2018-03-24T10:57:18.802Z,39.71
2018-03-24T10:59:48.062Z,40.49
2018-03-24T11:02:17.317Z,40.63
2018-03-24T11:04:46.964Z,41.60
2018-03-24T11:07:16.418Z,41.60
2018-03-24T11:09:45.873Z,40.38
2018-03-24T11:12:15.325Z,41.19
2018-03-24T11:14:44.793Z,42.01
2018-03-24T11:17:14.246Z,42.94
2018-03-24T11:19:43.690Z,44.31
2018-03-24T11:22:13.144Z,41.46
2018-03-24T11:24:42.566Z,42.96
2018-03-24T11:27:11.922Z,44.76
2018-03-24T11:29:41.826Z,41.58
2018-03-24T11:32:11.466Z,42.10
2018-03-24T11:34:40.915Z,42.93
2018-03-24T11:37:10.375Z,39.87
2018-03-24T11:39:39.828Z,41.42
2018-03-24T11:42:09.266Z,41.89
2018-03-24T11:44:39.136Z,40.41
2018-03-24T11:47:08.596Z,39.93
2018-03-24T11:49:38.448Z,39.69
2018-03-24T11:52:08.912Z,41.48
2018-03-24T11:54:45.378Z,39.95
2018-03-24T11:57:14.833Z,39.51
2018-03-24T11:59:44.316Z,39.78
2018-03-24T12:02:14.186Z,40.19
2018-03-24T12:04:43.929Z,38.67
2018-03-24T12:07:13.794Z,39.13
2018-03-24T12:09:43.261Z,36.35
2018-03-24T12:12:12.722Z,35.52
2018-03-24T12:14:42.194Z,35.39
2018-03-24T12:17:11.664Z,35.83
2018-03-24T12:19:41.782Z,37.32
2018-03-24T12:22:11.677Z,37.62
2018-03-24T12:24:42.152Z,38.69
2018-03-24T12:27:11.615Z,40.12
2018-03-24T12:29:41.270Z,39.41
2018-03-24T12:32:10.715Z,38.07
2018-03-24T12:34:40.170Z,38.40
2018-03-24T12:37:09.855Z,38.93
2018-03-24T12:39:39.735Z,39.23
2018-03-24T12:42:09.191Z,38.92
2018-03-24T12:44:38.636Z,38.34
2018-03-24T12:47:08.099Z,38.23
2018-03-24T12:49:37.958Z,36.87
2018-03-24T12:52:07.475Z,37.94
2018-03-24T12:54:36.968Z,37.35
2018-03-24T12:57:06.440Z,38.63
2018-03-24T12:59:35.903Z,38.59
2018-03-24T13:02:05.355Z,38.63
2018-03-24T13:04:34.807Z,38.56
2018-03-24T13:07:04.020Z,37.95
2018-03-24T13:09:33.483Z,38.68
2018-03-24T13:12:02.943Z,38.26
2018-03-24T13:14:32.996Z,38.53
2018-03-24T13:17:02.444Z,37.62
2018-03-24T13:19:31.888Z,36.95
2018-03-24T13:22:01.674Z,35.65
2018-03-24T13:24:31.527Z,36.55
2018-03-24T13:27:00.977Z,33.63
2018-03-24T13:29:30.437Z,33.74
2018-03-24T13:31:59.982Z,34.38
2018-03-24T13:34:29.589Z,32.06
2018-03-24T13:36:59.257Z,32.98
2018-03-24T13:39:28.720Z,32.63
2018-03-24T13:41:58.194Z,32.42
2018-03-24T13:44:27.702Z,31.85
2018-03-24T13:46:57.191Z,30.64
2018-03-24T13:49:27.638Z,29.64
2018-03-24T13:51:57.403Z,30.58
2018-03-24T13:54:26.890Z,30.32
2018-03-24T13:56:56.738Z,28.14
2018-03-24T13:59:26.196Z,29.29
2018-03-24T14:01:55.652Z,28.95
2018-03-24T14:04:25.120Z,30.22
2018-03-24T14:06:54.983Z,29.04
2018-03-24T14:09:24.832Z,28.99
2018-03-24T14:11:54.285Z,28.89
2018-03-24T14:14:23.734Z,29.79
2018-03-24T14:16:53.464Z,31.11
2018-03-24T14:19:23.338Z,31.80
2018-03-24T14:21:52.606Z,30.36
2018-03-24T14:24:22.074Z,30.15
2018-03-24T14:26:51.253Z,29.11
2018-03-24T14:29:20.700Z,28.69
2018-03-24T14:31:50.154Z,28.40
2018-03-24T14:34:19.628Z,28.60
2018-03-24T14:36:49.110Z,29.44
2018-03-24T14:39:18.302Z,28.84
2018-03-24T14:41:48.146Z,29.48
2018-03-24T14:44:17.616Z,29.32
2018-03-24T14:46:47.564Z,30.03
2018-03-24T14:49:17.704Z,29.19
2018-03-24T14:51:47.189Z,28.05
2018-03-24T14:54:16.624Z,28.68
2018-03-24T14:56:46.118Z,29.29
2018-03-24T14:59:15.788Z,30.42
2018-03-24T15:01:44.961Z,28.75
2018-03-24T15:04:14.414Z,30.43
2018-03-24T15:06:43.954Z,28.45
2018-03-24T15:09:13.406Z,27.74
2018-03-24T15:11:42.889Z,28.31
2018-03-24T15:14:12.746Z,29.61
2018-03-24T15:16:42.440Z,29.85
2018-03-24T15:19:12.660Z,30.07
2018-03-24T15:21:42.118Z,29.72
2018-03-24T15:24:11.579Z,29.55
2018-03-24T15:26:41.044Z,29.57
2018-03-24T15:29:27.593Z,30.07
2018-03-24T15:32:13.909Z,29.29
2018-03-24T15:35:00.144Z,30.00
2018-03-24T15:37:29.638Z,30.76
2018-03-24T15:39:59.082Z,30.29
2018-03-24T15:42:28.531Z,30.56
2018-03-24T15:44:58.007Z,30.48
2018-03-24T15:47:27.472Z,30.26
2018-03-24T15:49:57.343Z,28.81
2018-03-24T15:52:26.802Z,28.98
2018-03-24T15:54:56.682Z,29.93
2018-03-24T15:57:26.166Z,30.36
2018-03-24T15:59:55.672Z,29.43
2018-03-24T16:02:25.407Z,29.83
2018-03-24T16:04:55.394Z,30.63
2018-03-24T16:07:24.879Z,30.11
2018-03-24T16:09:54.352Z,29.99
2018-03-24T16:12:23.841Z,29.86
2018-03-24T16:14:53.291Z,30.47
2018-03-24T16:17:22.634Z,30.43
2018-03-24T16:19:52.126Z,30.17
2018-03-24T16:22:21.599Z,30.72
2018-03-24T16:24:51.080Z,31.19
2018-03-24T16:27:21.004Z,31.10
2018-03-24T16:29:50.465Z,32.22
2018-03-24T16:32:19.925Z,32.38
2018-03-24T16:34:49.379Z,32.65
2018-03-24T16:37:18.852Z,32.84
2018-03-24T16:39:48.329Z,33.55
2018-03-24T16:42:17.804Z,35.19
2018-03-24T16:44:47.277Z,34.24
2018-03-24T16:47:16.756Z,35.18
2018-03-24T16:49:46.230Z,36.12
2018-03-24T16:52:15.817Z,36.66
2018-03-24T16:54:45.748Z,36.71
2018-03-24T16:57:15.230Z,36.37
2018-03-24T16:59:44.835Z,36.52
2018-03-24T17:02:14.475Z,36.60
2018-03-24T17:04:44.371Z,37.07
2018-03-24T17:07:13.950Z,37.09
2018-03-24T17:09:43.612Z,37.35
2018-03-24T17:12:14.266Z,37.73
2018-03-24T17:14:43.737Z,38.08
2018-03-24T17:17:13.226Z,38.29
2018-03-24T17:19:42.755Z,38.04
2018-03-24T17:22:13.399Z,38.85
2018-03-24T17:24:43.293Z,38.90
2018-03-24T17:27:12.754Z,38.69
2018-03-24T17:29:42.409Z,37.97
2018-03-24T17:32:12.503Z,37.73
2018-03-24T17:34:41.989Z,38.06
2018-03-24T17:37:11.427Z,38.28
2018-03-24T17:39:40.873Z,39.27
2018-03-24T17:42:10.357Z,40.80
2018-03-24T17:44:40.193Z,40.92
2018-03-24T17:47:09.739Z,41.12
2018-03-24T17:49:39.273Z,41.61
2018-03-24T17:52:08.869Z,41.75
2018-03-24T17:54:38.319Z,41.97
2018-03-24T17:57:07.795Z,42.26
2018-03-24T17:59:37.453Z,42.83
2018-03-24T18:02:07.147Z,43.23
2018-03-24T18:04:36.809Z,43.50
2018-03-24T18:07:08.013Z,43.59
2018-03-24T18:09:37.649Z,44.19
2018-03-24T18:12:07.137Z,44.16
2018-03-24T18:14:36.571Z,44.49
2018-03-24T18:17:06.011Z,44.67
2018-03-24T18:19:35.472Z,44.62
2018-03-24T18:22:05.099Z,44.89
2018-03-24T18:24:34.571Z,44.82
2018-03-24T18:27:04.014Z,45.17
2018-03-24T18:29:34.077Z,45.49
2018-03-24T18:32:03.563Z,45.67
2018-03-24T18:34:33.253Z,46.08
2018-03-24T18:37:02.985Z,46.12
2018-03-24T18:39:32.488Z,46.40
2018-03-24T18:42:01.444Z,46.58
2018-03-24T18:44:31.081Z,47.04
2018-03-24T18:47:00.619Z,47.23
2018-03-24T18:49:30.055Z,47.48
2018-03-24T18:51:59.520Z,47.75
2018-03-24T18:54:29.367Z,48.52
2018-03-24T18:56:59.367Z,49.31
2018-03-24T18:59:28.837Z,49.50
2018-03-24T19:01:58.511Z,49.58
2018-03-24T19:04:28.371Z,49.89
2018-03-24T19:06:57.897Z,50.87
2018-03-24T19:09:27.630Z,51.42
2018-03-24T19:11:57.559Z,51.57
2018-03-24T19:14:27.017Z,51.85
2018-03-24T19:16:56.519Z,52.15
2018-03-24T19:19:26.105Z,52.56
2018-03-24T19:21:55.575Z,52.47
2018-03-24T19:24:25.034Z,53.07
2018-03-24T19:26:54.779Z,53.09
2018-03-24T19:29:24.369Z,53.40
2018-03-24T19:31:54.179Z,53.33
2018-03-24T19:34:23.773Z,53.49
2018-03-24T19:36:53.351Z,53.03
2018-03-24T19:39:23.739Z,53.14
2018-03-24T19:41:53.988Z,53.32
2018-03-24T19:44:23.621Z,53.31
2018-03-24T19:46:53.871Z,53.19
2018-03-24T19:49:23.717Z,53.13
2018-03-24T19:51:53.959Z,53.37
2018-03-24T19:54:23.603Z,53.56
2018-03-24T19:56:53.183Z,53.96
2018-03-24T19:59:23.413Z,54.78
2018-03-24T20:01:53.649Z,54.92
2018-03-24T20:04:23.548Z,55.38
2018-03-24T20:06:53.421Z,55.90
2018-03-24T20:09:23.452Z,56.10
2018-03-24T20:11:53.265Z,56.50
2018-03-24T20:14:23.311Z,56.63
2018-03-24T20:16:53.590Z,56.75
2018-03-24T20:19:24.711Z,57.02
2018-03-24T20:21:54.573Z,57.40
2018-03-24T20:24:24.229Z,57.63
2018-03-24T20:26:53.897Z,57.63
2018-03-24T20:29:23.763Z,57.61
2018-03-24T20:31:53.388Z,58.08
2018-03-24T20:34:23.446Z,58.00
2018-03-24T20:36:53.095Z,58.14
2018-03-24T20:39:22.966Z,58.26
2018-03-24T20:41:52.849Z,58.31
2018-03-24T20:44:22.873Z,59.00
2018-03-24T20:46:53.677Z,59.50
2018-03-24T20:49:23.305Z,59.37
2018-03-24T20:51:52.915Z,59.58
2018-03-24T20:54:22.747Z,59.72
2018-03-24T20:56:52.360Z,60.06
2018-03-24T20:59:21.843Z,60.40
2018-03-24T21:01:51.319Z,60.65
2018-03-24T21:04:20.797Z,60.70
2018-03-24T21:06:50.655Z,60.37
2018-03-24T21:09:20.297Z,59.71
2018-03-24T21:11:49.796Z,59.19
2018-03-24T21:14:19.373Z,59.81
2018-03-24T21:16:48.971Z,59.32
2018-03-24T21:19:18.449Z,59.32
2018-03-24T21:21:48.399Z,59.27
2018-03-24T21:24:17.985Z,59.54
2018-03-24T21:26:48.063Z,59.57
2018-03-24T21:29:17.608Z,59.88
2018-03-24T21:31:47.071Z,59.74
2018-03-24T21:34:16.531Z,59.89
2018-03-24T21:36:46.049Z,59.86
2018-03-24T21:39:15.543Z,59.78
2018-03-24T21:41:45.231Z,59.92
2018-03-24T21:44:15.089Z,60.14
2018-03-24T21:46:44.770Z,59.83
2018-03-24T21:49:14.344Z,59.91
2018-03-24T21:51:43.829Z,60.01
2018-03-24T21:54:13.582Z,60.02
2018-03-24T21:56:43.442Z,60.10
2018-03-24T21:59:12.886Z,60.11
2018-03-24T22:01:42.732Z,59.97
2018-03-24T22:04:12.171Z,59.87
2018-03-24T22:06:41.639Z,60.08
2018-03-24T22:09:11.367Z,60.09
2018-03-24T22:11:41.163Z,60.15
2018-03-24T22:14:12.616Z,60.29
2018-03-24T22:16:42.106Z,60.45
2018-03-24T22:19:13.452Z,60.49
2018-03-24T22:21:43.040Z,60.87
2018-03-24T22:24:12.931Z,61.06
2018-03-24T22:26:42.877Z,61.13
2018-03-24T22:29:12.804Z,61.24
2018-03-24T22:31:42.266Z,61.27
2018-03-24T22:34:19.129Z,61.12
2018-03-24T22:36:56.547Z,61.56
2018-03-24T22:39:32.284Z,61.62
2018-03-24T22:42:02.513Z,61.96
2018-03-24T22:44:31.998Z,61.92
2018-03-24T22:47:03.294Z,62.15
2018-03-24T22:49:32.893Z,62.03
2018-03-24T22:52:02.766Z,62.32
2018-03-24T22:54:32.236Z,62.23
2018-03-24T22:57:01.792Z,62.18
2018-03-24T22:59:31.252Z,62.02
2018-03-24T23:02:00.692Z,62.25
2018-03-24T23:04:30.162Z,62.41
2018-03-24T23:06:59.620Z,62.56
2018-03-24T23:09:29.122Z,62.37
2018-03-24T23:11:59.519Z,61.74
2018-03-24T23:14:29.009Z,61.81
2018-03-24T23:16:59.834Z,62.42
2018-03-24T23:19:29.307Z,63.13
2018-03-24T23:21:58.802Z,63.31
2018-03-24T23:24:28.266Z,63.33
2018-03-24T23:26:57.749Z,63.34
2018-03-24T23:33:03.616Z,63.65
2018-03-24T23:35:33.470Z,63.60
2018-03-24T23:38:03.430Z,63.57
2018-03-24T23:40:32.706Z,63.65
2018-03-24T23:43:02.155Z,63.60
2018-03-24T23:45:32.042Z,63.60
2018-03-24T23:48:01.500Z,63.77
2018-03-24T23:50:30.977Z,63.87
2018-03-24T23:53:00.472Z,63.91
2018-03-24T23:55:30.344Z,64.15
2018-03-24T23:57:59.856Z,63.96
